createdAt,value
2022-12-24T00:01:57.598Z,47.17
2022-12-24T00:04:27.361Z,47.67
2022-12-24T00:06:56.720Z,52.03
2022-12-24T00:09:26.552Z,45.53
2022-12-24T00:11:56.230Z,44.67
2022-12-24T00:14:26.492Z,45.13
2022-12-24T00:16:56.314Z,46.67
2022-12-24T00:19:25.683Z,49.30
2022-12-24T00:21:55.342Z,53.15
2022-12-24T00:24:24.990Z,56.53
2022-12-24T00:26:54.417Z,56.75
2022-12-24T00:29:24.074Z,54.53
2022-12-24T00:31:54.001Z,53.85
2022-12-24T00:34:26.027Z,54.30
2022-12-24T00:36:55.870Z,50.85
2022-12-24T00:39:25.483Z,47.63
2022-12-24T00:41:54.904Z,53.28
2022-12-24T00:44:24.598Z,48.17
2022-12-24T00:46:54.172Z,50.67
2022-12-24T00:49:23.786Z,48.08
2022-12-24T00:51:53.965Z,49.03
2022-12-24T00:54:23.678Z,46.97
2022-12-24T00:56:53.346Z,46.88
2022-12-24T00:59:23.082Z,47.08
2022-12-24T01:01:55.961Z,44.92
2022-12-24T01:04:46.507Z,45.10
2022-12-24T01:07:18.515Z,43.30
2022-12-24T01:09:49.690Z,46.50
2022-12-24T01:12:20.341Z,47.47
2022-12-24T01:14:51.144Z,46.97
2022-12-24T01:17:21.653Z,43.40
2022-12-24T01:19:52.049Z,46.10
2022-12-24T01:22:23.318Z,41.60
2022-12-24T01:24:53.835Z,46.60
2022-12-24T01:27:24.213Z,54.22
2022-12-24T01:29:54.557Z,54.75
2022-12-24T01:32:24.557Z,52.80
2022-12-24T01:34:54.861Z,52.25
2022-12-24T01:37:25.575Z,51.92
2022-12-24T01:40:15.569Z,53.65
2022-12-24T01:43:08.530Z,58.28
2022-12-24T01:45:47.358Z,50.08
2022-12-24T01:48:20.470Z,48.65
2022-12-24T01:50:57.756Z,56.05
2022-12-24T01:53:28.404Z,50.17
2022-12-24T01:55:59.208Z,46.05
2022-12-24T01:58:29.633Z,47.22
2022-12-24T02:00:59.910Z,53.15
2022-12-24T02:03:30.475Z,39.92
2022-12-24T02:06:02.067Z,40.65
2022-12-24T02:08:41.378Z,38.80
2022-12-24T02:11:23.166Z,41.40
2022-12-24T02:14:00.430Z,41.08
2022-12-24T02:16:36.423Z,39.55
2022-12-24T02:19:29.586Z,51.55
2022-12-24T02:22:04.765Z,45.53
2022-12-24T02:24:58.996Z,58.45
2022-12-24T02:28:20.411Z,42.30
2022-12-24T02:31:05.824Z,44.85
2022-12-24T02:33:40.513Z,49.50
2022-12-24T02:36:27.399Z,51.33
2022-12-24T02:39:04.807Z,133.95
2022-12-24T02:42:01.020Z,52.85
2022-12-24T02:44:33.656Z,53.85
2022-12-24T02:49:34.906Z,57.97
2022-12-24T02:52:05.556Z,53.67
2022-12-24T02:54:35.729Z,49.85
2022-12-24T02:57:08.475Z,52.22
2022-12-24T02:59:54.400Z,77.75
2022-12-24T03:02:42.462Z,56.97
2022-12-24T03:05:38.182Z,48.78
2022-12-24T03:08:18.558Z,56.28
2022-12-24T03:10:58.497Z,61.53
2022-12-24T03:13:30.434Z,65.85
2022-12-24T03:16:00.993Z,61.70
2022-12-24T03:18:32.265Z,60.30
2022-12-24T03:21:32.352Z,56.83
2022-12-24T03:24:02.991Z,56.65
2022-12-24T03:26:35.971Z,56.47
2022-12-24T03:29:10.244Z,56.78
2022-12-24T03:31:45.580Z,56.20
2022-12-24T03:34:17.670Z,63.78
2022-12-24T03:36:49.359Z,66.38
2022-12-24T03:39:20.156Z,71.10
2022-12-24T03:41:50.203Z,81.95
2022-12-24T03:44:20.596Z,76.82
2022-12-24T03:46:50.467Z,73.43
2022-12-24T03:49:20.732Z,71.55
2022-12-24T03:51:50.849Z,72.75
2022-12-24T03:54:20.981Z,78.90
2022-12-24T03:56:51.140Z,79.10
2022-12-24T03:59:22.116Z,70.05
2022-12-24T04:01:52.401Z,59.75
2022-12-24T04:04:22.710Z,56.65
2022-12-24T04:06:52.910Z,64.40
2022-12-24T04:09:23.484Z,62.00
2022-12-24T04:11:53.443Z,59.35
2022-12-24T04:14:23.276Z,57.08
2022-12-24T04:16:53.698Z,61.15
2022-12-24T04:19:23.847Z,48.85
2022-12-24T04:21:53.990Z,48.97
2022-12-24T04:24:24.496Z,46.15
2022-12-24T04:26:54.789Z,47.13
2022-12-24T04:29:24.752Z,47.78
2022-12-24T04:31:55.067Z,45.78
2022-12-24T04:34:25.433Z,47.38
2022-12-24T04:36:55.518Z,52.70
2022-12-24T04:39:26.098Z,54.95
2022-12-24T04:41:56.166Z,53.80
2022-12-24T04:44:26.530Z,54.22
2022-12-24T04:46:56.732Z,48.13
2022-12-24T04:49:26.796Z,48.20
2022-12-24T04:51:56.696Z,60.00
2022-12-24T04:54:27.007Z,52.78
2022-12-24T04:56:57.016Z,54.15
2022-12-24T04:59:27.253Z,66.20
2022-12-24T05:01:57.571Z,58.00
2022-12-24T05:04:28.023Z,60.70
2022-12-24T05:06:57.990Z,72.32
2022-12-24T05:09:27.943Z,58.75
2022-12-24T05:11:58.572Z,54.05
2022-12-24T05:14:28.700Z,56.15
2022-12-24T05:16:59.070Z,55.78
2022-12-24T05:19:29.673Z,55.13
2022-12-24T05:22:18.228Z,50.47
2022-12-24T05:25:06.392Z,49.03
2022-12-24T05:27:36.627Z,58.65
2022-12-24T05:30:07.445Z,56.45
2022-12-24T05:32:38.154Z,54.50
2022-12-24T05:38:10.919Z,61.42
2022-12-24T05:40:40.645Z,66.05
2022-12-24T05:43:10.320Z,64.55
2022-12-24T05:45:39.809Z,65.80
2022-12-24T05:48:09.321Z,68.10
2022-12-24T05:50:41.793Z,70.90
2022-12-24T05:53:12.253Z,74.57
2022-12-24T05:55:41.756Z,70.90
2022-12-24T05:58:11.138Z,74.55
2022-12-24T06:00:40.911Z,66.18
2022-12-24T06:03:10.502Z,73.32
2022-12-24T06:05:42.527Z,72.82
2022-12-24T06:08:11.992Z,71.25
2022-12-24T06:10:41.623Z,68.25
2022-12-24T06:13:11.193Z,72.97
2022-12-24T06:15:40.713Z,86.43
2022-12-24T06:18:10.390Z,86.95
2022-12-24T06:20:40.082Z,70.00
2022-12-24T06:23:09.395Z,73.60
2022-12-24T06:25:39.024Z,71.22
2022-12-24T06:28:08.500Z,71.07
2022-12-24T06:30:38.010Z,74.10
2022-12-24T06:33:07.823Z,73.68
2022-12-24T06:35:37.082Z,71.72
2022-12-24T06:38:06.637Z,78.88
2022-12-24T06:40:36.227Z,78.57
2022-12-24T06:43:05.713Z,70.25
2022-12-24T06:45:35.430Z,74.05
2022-12-24T06:48:05.285Z,72.75
2022-12-24T06:50:38.075Z,66.38
2022-12-24T06:53:08.086Z,68.10
2022-12-24T06:55:38.086Z,71.10
2022-12-24T06:58:07.830Z,70.32
2022-12-24T07:00:37.643Z,71.88
2022-12-24T07:03:07.372Z,68.40
2022-12-24T07:05:36.759Z,63.28
2022-12-24T07:08:06.346Z,62.92
2022-12-24T07:10:36.106Z,66.00
2022-12-24T07:13:05.589Z,66.40
2022-12-24T07:15:35.264Z,61.58
2022-12-24T07:18:04.972Z,62.45
2022-12-24T07:20:34.328Z,58.17
2022-12-24T07:23:03.968Z,61.40
2022-12-24T07:25:33.618Z,57.22
2022-12-24T07:28:02.924Z,60.83
2022-12-24T07:30:32.544Z,65.55
2022-12-24T07:33:01.857Z,67.65
2022-12-24T07:35:31.257Z,65.13
2022-12-24T07:38:00.758Z,61.63
2022-12-24T07:40:30.221Z,59.65
2022-12-24T07:42:59.767Z,61.35
2022-12-24T07:45:29.190Z,63.88
2022-12-24T07:47:59.131Z,55.08
2022-12-24T07:50:28.882Z,54.50
2022-12-24T07:52:58.318Z,55.95
2022-12-24T07:55:28.209Z,53.22
2022-12-24T07:57:57.858Z,56.38
2022-12-24T08:00:27.404Z,50.58
2022-12-24T08:02:57.144Z,55.92
2022-12-24T08:05:27.679Z,59.67
2022-12-24T08:07:57.432Z,54.33
2022-12-24T08:10:26.985Z,57.85
2022-12-24T08:12:56.470Z,56.63
2022-12-24T08:15:25.851Z,57.17
2022-12-24T08:17:55.174Z,58.92
2022-12-24T08:20:24.751Z,60.05
2022-12-24T08:22:54.918Z,64.20
2022-12-24T08:25:24.462Z,66.10
2022-12-24T08:27:53.787Z,72.35
2022-12-24T08:30:23.283Z,67.45
2022-12-24T08:32:52.762Z,67.88
2022-12-24T08:35:22.763Z,71.20
2022-12-24T08:37:52.387Z,67.82
2022-12-24T08:40:22.267Z,67.05
2022-12-24T08:42:52.180Z,65.18
2022-12-24T08:45:22.165Z,64.78
2022-12-24T08:47:51.704Z,68.32
2022-12-24T08:50:21.207Z,61.70
2022-12-24T08:52:51.153Z,62.50
2022-12-24T08:55:20.899Z,65.28
2022-12-24T08:57:50.401Z,61.92
2022-12-24T09:00:20.571Z,60.80
2022-12-24T09:02:50.155Z,59.63
2022-12-24T09:05:20.017Z,61.75
2022-12-24T09:07:49.642Z,57.05
2022-12-24T09:10:19.095Z,56.40
2022-12-24T09:12:49.094Z,57.72
2022-12-24T09:15:18.810Z,58.83
2022-12-24T09:17:48.335Z,62.30
2022-12-24T09:20:17.759Z,55.50
2022-12-24T09:22:47.492Z,55.25
2022-12-24T09:25:18.039Z,52.70
2022-12-24T09:27:48.271Z,53.22
2022-12-24T09:30:18.126Z,57.67
2022-12-24T09:32:47.795Z,59.95
2022-12-24T09:35:17.188Z,58.65
2022-12-24T09:37:46.919Z,50.53
2022-12-24T09:40:27.036Z,47.58
2022-12-24T09:42:56.794Z,47.05
2022-12-24T09:45:39.392Z,51.10
2022-12-24T09:48:25.149Z,57.00
2022-12-24T09:51:18.128Z,54.25
2022-12-24T09:54:01.813Z,51.97
2022-12-24T09:56:46.298Z,52.13
2022-12-24T09:59:19.302Z,58.58
2022-12-24T10:01:50.872Z,57.65
2022-12-24T10:04:24.409Z,58.70
2022-12-24T10:07:24.187Z,62.08
2022-12-24T10:10:29.623Z,64.25
2022-12-24T10:13:26.646Z,61.83
2022-12-24T10:16:09.445Z,59.00
2022-12-24T10:18:52.260Z,61.50
2022-12-24T10:21:58.399Z,58.65
2022-12-24T10:24:48.108Z,61.78
2022-12-24T10:27:23.242Z,65.00
2022-12-24T10:30:02.803Z,68.05
2022-12-24T10:32:35.762Z,73.85
2022-12-24T10:35:17.373Z,73.45
2022-12-24T10:37:50.398Z,66.15
2022-12-24T10:40:45.940Z,66.68
2022-12-24T10:43:17.342Z,57.88
2022-12-24T10:45:54.306Z,67.05
2022-12-24T10:48:50.478Z,68.32
2022-12-24T10:51:50.219Z,66.50
2022-12-24T10:54:26.997Z,60.53
2022-12-24T10:57:03.736Z,64.35
2022-12-24T10:59:53.556Z,69.97
2022-12-24T11:02:37.892Z,74.30
2022-12-24T11:05:32.836Z,77.07
2022-12-24T11:08:18.717Z,81.25
2022-12-24T11:11:02.398Z,81.07
2022-12-24T11:13:47.637Z,78.07
2022-12-24T11:16:28.315Z,75.28
2022-12-24T11:19:03.085Z,83.85
2022-12-24T11:21:34.747Z,81.43
2022-12-24T11:24:10.396Z,81.43
2022-12-24T11:26:40.733Z,84.70
2022-12-24T11:29:26.626Z,87.00
2022-12-24T11:32:19.277Z,86.32
2022-12-24T11:34:49.124Z,85.18
2022-12-24T11:37:26.235Z,90.07
2022-12-24T11:40:01.665Z,81.68
2022-12-24T11:42:41.872Z,81.40
2022-12-24T11:45:27.426Z,79.38
2022-12-24T11:47:57.977Z,82.18
2022-12-24T11:50:36.815Z,80.18
2022-12-24T11:53:06.306Z,88.63
2022-12-24T11:55:53.969Z,90.68
2022-12-24T11:58:50.627Z,93.07
2022-12-24T12:01:48.175Z,95.05
2022-12-24T12:04:26.092Z,97.55
2022-12-24T12:07:17.238Z,94.88
2022-12-24T12:10:01.334Z,87.43
2022-12-24T12:12:36.476Z,90.32
2022-12-24T12:15:17.308Z,88.28
2022-12-24T12:17:46.823Z,91.20
2022-12-24T12:20:57.943Z,84.93
2022-12-24T12:23:38.145Z,90.20
2022-12-24T12:26:17.141Z,92.38
2022-12-24T12:29:01.901Z,96.28
2022-12-24T12:31:37.384Z,100.70
2022-12-24T12:37:14.225Z,97.55
2022-12-24T12:39:44.845Z,101.82
2022-12-24T12:42:36.499Z,107.47
2022-12-24T12:45:47.885Z,103.47
2022-12-24T12:48:23.648Z,107.68
2022-12-24T12:51:17.159Z,101.38
2022-12-24T12:53:55.515Z,99.20
2022-12-24T12:56:35.086Z,92.75
2022-12-24T12:59:18.763Z,96.25
2022-12-24T13:01:51.161Z,95.43
2022-12-24T13:05:18.114Z,100.80
2022-12-24T13:08:14.729Z,101.20
2022-12-24T13:11:25.421Z,99.88
2022-12-24T13:14:06.811Z,95.90
2022-12-24T13:16:50.763Z,95.35
2022-12-24T13:20:02.251Z,96.68
2022-12-24T13:22:32.522Z,98.70
2022-12-24T13:25:02.696Z,99.43
2022-12-24T13:27:36.377Z,98.82
2022-12-24T13:30:41.985Z,103.93
2022-12-24T13:33:35.653Z,96.88
2022-12-24T13:36:07.640Z,101.72
2022-12-24T13:38:50.782Z,97.65
2022-12-24T13:41:42.253Z,97.35
2022-12-24T13:44:15.741Z,96.18
2022-12-24T13:47:00.152Z,100.75
2022-12-24T13:49:46.283Z,103.53
2022-12-24T13:52:24.587Z,103.70
2022-12-24T13:55:00.575Z,106.35
2022-12-24T13:57:46.177Z,116.10
2022-12-24T14:00:25.981Z,120.60
2022-12-24T14:03:08.754Z,115.55
2022-12-24T14:08:13.839Z,96.95
2022-12-24T14:11:13.001Z,99.10
2022-12-24T14:13:43.238Z,92.63
2022-12-24T14:16:27.341Z,96.55
2022-12-24T14:19:11.791Z,92.93
2022-12-24T14:22:06.648Z,94.15
2022-12-24T14:24:40.063Z,99.90
2022-12-24T14:27:34.094Z,101.25
2022-12-24T14:30:09.864Z,108.40
2022-12-24T14:32:42.594Z,118.40
2022-12-24T14:35:37.239Z,123.28
2022-12-24T14:38:15.615Z,130.02
2022-12-24T14:41:11.277Z,134.60
2022-12-24T14:44:08.795Z,130.27
2022-12-24T14:47:03.564Z,131.27
2022-12-24T14:50:18.568Z,141.00
2022-12-24T14:53:11.894Z,156.73
2022-12-24T14:55:49.867Z,161.65
2022-12-24T14:58:38.651Z,160.63
2022-12-24T15:01:30.541Z,160.70
2022-12-24T15:04:13.040Z,153.87
2022-12-24T15:06:54.602Z,163.23
2022-12-24T15:09:30.990Z,145.13
2022-12-24T15:12:06.808Z,144.15
2022-12-24T15:14:49.038Z,148.23
2022-12-24T15:17:23.020Z,143.68
2022-12-24T15:19:57.944Z,148.70
2022-12-24T15:22:33.087Z,157.77
2022-12-24T15:25:04.587Z,177.98
2022-12-24T15:27:40.472Z,179.95
2022-12-24T15:30:23.040Z,164.02
2022-12-24T15:32:59.628Z,147.95
2022-12-24T15:35:49.214Z,143.77
2022-12-24T15:38:36.318Z,139.13
2022-12-24T15:41:30.616Z,140.15
2022-12-24T15:46:36.748Z,126.25
2022-12-24T15:49:07.180Z,125.60
2022-12-24T15:51:40.877Z,123.47
2022-12-24T15:54:19.491Z,128.90
2022-12-24T15:56:50.958Z,135.25
2022-12-24T15:59:38.528Z,134.32
2022-12-24T16:02:34.664Z,132.95
2022-12-24T16:05:31.324Z,133.77
2022-12-24T16:08:27.466Z,140.70
2022-12-24T16:11:19.946Z,143.25
2022-12-24T16:13:53.413Z,137.10
2022-12-24T16:16:33.879Z,142.85
2022-12-24T16:19:12.067Z,149.68
2022-12-24T16:21:47.093Z,152.55
2022-12-24T16:24:33.224Z,156.52
2022-12-24T16:27:03.588Z,153.70
2022-12-24T16:29:35.203Z,153.60
2022-12-24T16:32:05.777Z,153.85
2022-12-24T16:34:36.424Z,147.63
2022-12-24T16:37:12.753Z,157.48
2022-12-24T16:39:49.900Z,152.15
2022-12-24T16:42:39.215Z,162.63
2022-12-24T16:45:15.260Z,152.98
2022-12-24T16:47:48.363Z,150.35
2022-12-24T16:50:19.910Z,152.40
2022-12-24T16:52:53.314Z,151.15
2022-12-24T16:55:23.639Z,141.98
2022-12-24T16:57:56.920Z,140.75
2022-12-24T17:00:30.196Z,134.50
2022-12-24T17:03:04.653Z,128.10
2022-12-24T17:05:43.057Z,133.48
2022-12-24T17:08:15.114Z,135.63
2022-12-24T17:10:58.352Z,131.15
2022-12-24T17:13:39.797Z,135.77
2022-12-24T17:16:12.239Z,142.80
2022-12-24T17:18:43.012Z,149.70
2022-12-24T17:21:22.717Z,135.45
2022-12-24T17:23:55.734Z,140.85
2022-12-24T17:26:26.320Z,137.45
2022-12-24T17:28:57.832Z,142.73
2022-12-24T17:31:37.669Z,149.23
2022-12-24T17:34:11.054Z,141.00
2022-12-24T17:36:41.492Z,138.35
2022-12-24T17:39:11.894Z,141.27
2022-12-24T17:41:43.652Z,138.23
2022-12-24T17:44:22.846Z,137.13
2022-12-24T17:46:54.766Z,133.30
2022-12-24T17:49:26.380Z,130.60
2022-12-24T17:51:58.454Z,132.02
2022-12-24T17:54:33.053Z,126.97
2022-12-24T17:57:07.549Z,127.60
2022-12-24T17:59:39.145Z,131.00
2022-12-24T18:02:11.449Z,126.22
2022-12-24T18:04:43.020Z,130.05
2022-12-24T18:07:19.056Z,125.60
2022-12-24T18:09:53.425Z,126.55
2022-12-24T18:12:23.822Z,123.20
2022-12-24T18:14:54.049Z,127.13
2022-12-24T18:17:24.567Z,127.15
2022-12-24T18:19:57.793Z,128.68
2022-12-24T18:22:28.426Z,126.55
2022-12-24T18:24:58.639Z,122.25
2022-12-24T18:27:28.932Z,123.45
2022-12-24T18:30:00.400Z,120.93
2022-12-24T18:32:30.736Z,119.57
2022-12-24T18:35:01.126Z,121.90
2022-12-24T18:37:34.338Z,122.88
2022-12-24T18:40:05.858Z,125.18
2022-12-24T18:42:36.365Z,126.38
2022-12-24T18:45:06.855Z,124.40
2022-12-24T18:47:36.850Z,114.03
2022-12-24T18:50:07.026Z,115.97
2022-12-24T18:52:36.964Z,115.15
2022-12-24T18:55:06.640Z,111.95
2022-12-24T18:57:36.633Z,103.57
2022-12-24T19:00:06.754Z,109.63
2022-12-24T19:02:36.467Z,99.88
2022-12-24T19:05:06.568Z,100.45
2022-12-24T19:07:36.706Z,97.63
2022-12-24T19:10:06.525Z,96.78
2022-12-24T19:12:36.539Z,95.38
2022-12-24T19:15:07.785Z,90.90
2022-12-24T19:17:37.678Z,88.47
2022-12-24T19:20:09.348Z,87.22
2022-12-24T19:22:39.008Z,85.63
2022-12-24T19:25:08.965Z,87.68
2022-12-24T19:27:38.259Z,87.57
2022-12-24T19:30:08.690Z,81.95
2022-12-24T19:32:39.012Z,82.82
2022-12-24T19:35:08.920Z,80.57
2022-12-24T19:37:38.449Z,80.38
2022-12-24T19:40:09.253Z,78.78
2022-12-24T19:42:38.722Z,80.90
2022-12-24T19:45:11.775Z,83.63
2022-12-24T19:47:41.207Z,87.03
2022-12-24T19:50:11.263Z,80.60
2022-12-24T19:52:40.841Z,102.13
2022-12-24T19:55:11.897Z,88.15
2022-12-24T19:57:41.408Z,84.88
2022-12-24T20:00:11.836Z,80.47
2022-12-24T20:02:41.378Z,84.05
2022-12-24T20:05:11.050Z,99.18
2022-12-24T20:07:40.502Z,92.80
2022-12-24T20:10:10.883Z,93.32
2022-12-24T20:12:40.515Z,204.13
2022-12-24T20:15:10.475Z,135.57
2022-12-24T20:17:40.060Z,110.45
2022-12-24T20:20:10.187Z,109.55
2022-12-24T20:22:39.862Z,129.63
2022-12-24T20:25:10.410Z,188.43
2022-12-24T20:27:40.258Z,218.40
2022-12-24T20:30:10.457Z,218.02
2022-12-24T20:32:40.015Z,208.23
2022-12-24T20:35:10.123Z,203.38
2022-12-24T20:37:45.746Z,196.35
2022-12-24T20:40:16.510Z,189.13
2022-12-24T20:42:46.063Z,183.10
2022-12-24T20:45:15.745Z,185.75
2022-12-24T20:47:47.629Z,192.20
2022-12-24T20:50:17.571Z,188.07
2022-12-24T20:52:47.251Z,193.20
2022-12-24T20:55:18.406Z,187.95
2022-12-24T20:57:51.008Z,188.75
2022-12-24T21:00:21.093Z,179.70
2022-12-24T21:02:50.883Z,188.05
2022-12-24T21:05:21.582Z,179.00
2022-12-24T21:07:51.022Z,169.68
2022-12-24T21:10:20.576Z,172.38
2022-12-24T21:12:58.155Z,165.25
2022-12-24T21:15:31.102Z,162.07
2022-12-24T21:18:01.842Z,161.32
2022-12-24T21:20:31.756Z,162.38
2022-12-24T21:23:02.872Z,158.60
2022-12-24T21:25:32.386Z,152.98
2022-12-24T21:28:01.918Z,154.25
2022-12-24T21:30:33.328Z,159.55
2022-12-24T21:33:02.845Z,159.00
2022-12-24T21:35:32.361Z,151.63
2022-12-24T21:38:01.817Z,157.90
2022-12-24T21:40:31.713Z,139.52
2022-12-24T21:43:01.265Z,143.38
2022-12-24T21:45:30.851Z,144.82
2022-12-24T21:48:20.286Z,138.02
2022-12-24T21:50:59.245Z,130.18
2022-12-24T21:53:47.428Z,113.63
2022-12-24T21:56:16.825Z,106.00
2022-12-24T21:58:46.532Z,108.18
2022-12-24T22:01:16.094Z,111.25
2022-12-24T22:03:48.872Z,116.75
2022-12-24T22:06:36.958Z,114.72
2022-12-24T22:09:24.607Z,115.10
2022-12-24T22:11:55.162Z,125.80
2022-12-24T22:14:24.833Z,121.22
2022-12-24T22:16:54.313Z,123.03
2022-12-24T22:19:23.705Z,123.95
2022-12-24T22:21:53.415Z,122.28
2022-12-24T22:24:22.940Z,118.50
2022-12-24T22:26:52.389Z,116.13
2022-12-24T22:29:21.804Z,114.18
2022-12-24T22:31:51.462Z,103.15
2022-12-24T22:34:20.761Z,101.93
2022-12-24T22:36:50.337Z,119.88
2022-12-24T22:39:20.101Z,106.15
2022-12-24T22:41:49.572Z,117.45
2022-12-24T22:44:19.207Z,127.00
2022-12-24T22:46:48.773Z,117.20
2022-12-24T22:49:18.051Z,102.43
2022-12-24T22:51:47.724Z,98.50
2022-12-24T22:54:17.167Z,101.03
2022-12-24T22:56:47.113Z,101.88
2022-12-24T22:59:16.818Z,106.65
2022-12-24T23:01:48.440Z,116.70
2022-12-24T23:04:18.197Z,132.38
2022-12-24T23:06:47.720Z,80.50
2022-12-24T23:09:18.577Z,87.97
2022-12-24T23:11:48.281Z,80.28
2022-12-24T23:14:40.589Z,80.50
2022-12-24T23:17:10.864Z,83.30
2022-12-24T23:19:40.741Z,73.38
2022-12-24T23:22:11.689Z,81.40
2022-12-24T23:24:42.572Z,69.22
2022-12-24T23:27:12.182Z,64.05
2022-12-24T23:29:42.445Z,77.32
2022-12-24T23:32:11.813Z,77.07
2022-12-24T23:34:41.736Z,71.32
2022-12-24T23:37:11.124Z,70.93
2022-12-24T23:39:40.802Z,76.43
2022-12-24T23:42:10.394Z,72.40
2022-12-24T23:44:39.794Z,66.85
2022-12-24T23:47:09.862Z,70.38
2022-12-24T23:49:39.227Z,68.63
2022-12-24T23:52:08.706Z,62.13
2022-12-24T23:54:38.430Z,59.35
2022-12-24T23:57:07.976Z,57.53
2022-12-24T23:59:37.464Z,61.05
